KTMA/TMA METAR and TAF weather

Enter ICAO airport designator
Station Type Date Time Source
KTMA METAR 2022/06/26 07:15 UTC NOAA

KTMA 260715Z AUTO 00000KT 10SM BKN060 24/21 A3009 RMK AO2 T02350212


Station Type Date Time Source
KTMA Decoded METAR 2022/06/26 07:15 UTC NOAA

Station name not available
Jun 26, 2022 - 03:15 AM EDT / 2022.06.26 0715 UTC
Wind: Calm:0
Visibility: 10 mile(s):0
Sky conditions: mostly cloudy
Temperature: 74.3 F (23.5 C)
Dew Point: 70.2 F (21.2 C)
Relative Humidity: 86%
Pressure (altimeter): 30.09 in. Hg (1018 hPa)
ob: KTMA 260715Z AUTO 00000KT 10SM BKN060 24/21 A3009 RMK AO2 T02350212
cycle: 7

Station Type Date Time Source
KTMA TAF UTC NOAA

Error!

Example: see airport list